createdAt,value
2019-03-19T00:02:27.648Z,4.57
2019-03-19T00:05:50.897Z,4.39
2019-03-19T00:09:15.337Z,4.42
2019-03-19T00:12:38.503Z,4.37
2019-03-19T00:16:01.661Z,4.39
2019-03-19T00:19:24.858Z,4.55
2019-03-19T00:22:47.965Z,4.44
2019-03-19T00:26:14.118Z,4.64
2019-03-19T00:29:38.362Z,4.50
2019-03-19T00:33:02.561Z,4.47
2019-03-19T00:36:25.691Z,4.49
2019-03-19T00:39:48.820Z,4.41
2019-03-19T00:43:12.375Z,4.40
2019-03-19T00:46:35.469Z,4.23
2019-03-19T00:49:58.613Z,4.07
2019-03-19T00:53:21.703Z,4.11
2019-03-19T00:56:44.778Z,4.08
2019-03-19T01:00:10.431Z,4.09
2019-03-19T01:03:33.512Z,3.91
2019-03-19T01:06:56.706Z,4.00
2019-03-19T01:10:19.985Z,3.92
2019-03-19T01:13:43.143Z,3.87
2019-03-19T01:17:06.447Z,3.82
2019-03-19T01:20:29.554Z,3.76
2019-03-19T01:23:52.796Z,3.71
2019-03-19T01:27:18.016Z,3.83
2019-03-19T01:30:41.119Z,4.21
2019-03-19T01:34:04.205Z,4.02
2019-03-19T01:37:27.320Z,4.02
2019-03-19T01:40:50.600Z,4.16
2019-03-19T01:44:14.059Z,4.16
2019-03-19T01:47:37.207Z,4.11
2019-03-19T01:51:00.346Z,4.12
2019-03-19T01:54:23.424Z,4.09
2019-03-19T01:57:46.602Z,4.12
2019-03-19T02:01:09.852Z,4.04
2019-03-19T02:04:33.035Z,3.88
2019-03-19T02:07:56.249Z,3.93
2019-03-19T02:11:19.350Z,3.81
2019-03-19T02:14:42.651Z,3.79
2019-03-19T02:18:05.784Z,3.80
2019-03-19T02:21:29.207Z,3.76
2019-03-19T02:24:52.631Z,3.77
2019-03-19T02:28:15.881Z,3.70
2019-03-19T02:31:38.986Z,3.69
2019-03-19T02:35:02.140Z,3.55
2019-03-19T02:38:25.443Z,3.58
2019-03-19T02:41:48.783Z,3.56
2019-03-19T02:45:12.133Z,3.60
2019-03-19T02:48:35.675Z,3.56
2019-03-19T02:51:58.905Z,3.67
2019-03-19T02:55:22.342Z,3.63
2019-03-19T02:58:45.448Z,3.59
2019-03-19T03:02:08.604Z,3.42
2019-03-19T03:05:31.814Z,3.45
2019-03-19T03:08:54.924Z,3.45
2019-03-19T03:12:18.046Z,3.30
2019-03-19T03:15:41.173Z,3.23
2019-03-19T03:19:04.443Z,3.23
2019-03-19T03:22:27.642Z,3.33
2019-03-19T03:25:50.793Z,3.22
2019-03-19T03:29:13.884Z,3.14
2019-03-19T03:32:37.030Z,3.18
2019-03-19T03:36:00.122Z,3.18
2019-03-19T03:39:23.252Z,3.20
2019-03-19T03:42:46.386Z,3.14
2019-03-19T03:46:09.477Z,3.12
2019-03-19T03:49:32.967Z,3.12
2019-03-19T03:52:56.055Z,3.10
2019-03-19T03:56:19.148Z,3.08
2019-03-19T03:59:42.346Z,2.96
2019-03-19T04:03:05.470Z,2.97
2019-03-19T04:06:28.651Z,3.05
2019-03-19T04:09:52.957Z,3.15
2019-03-19T04:13:16.121Z,3.40
2019-03-19T04:16:39.303Z,3.26
2019-03-19T04:20:02.580Z,3.26
2019-03-19T04:23:25.674Z,3.23
2019-03-19T04:26:48.957Z,3.17
2019-03-19T04:30:12.285Z,3.13
2019-03-19T04:33:35.411Z,2.96
2019-03-19T04:36:58.527Z,3.00
2019-03-19T04:40:21.732Z,2.97
2019-03-19T04:43:44.805Z,2.89
2019-03-19T04:47:08.248Z,2.84
2019-03-19T04:50:31.364Z,2.91
2019-03-19T04:53:54.943Z,2.93
2019-03-19T04:57:26.309Z,3.03
2019-03-19T05:00:43.616Z,2.85
2019-03-19T05:04:06.931Z,2.98
2019-03-19T05:07:30.030Z,3.10
2019-03-19T05:10:53.536Z,3.15
2019-03-19T05:14:16.738Z,3.08
2019-03-19T05:17:39.993Z,3.10
2019-03-19T05:21:03.143Z,3.15
2019-03-19T05:24:27.243Z,3.28
2019-03-19T05:27:50.357Z,3.32
2019-03-19T05:31:13.499Z,3.38
2019-03-19T05:34:36.924Z,3.39
2019-03-19T05:38:00.393Z,3.31
2019-03-19T05:41:23.475Z,3.09
2019-03-19T05:44:46.745Z,3.41
2019-03-19T05:48:09.840Z,3.25
2019-03-19T05:51:32.995Z,3.28
2019-03-19T05:54:56.326Z,3.24
2019-03-19T05:58:22.500Z,3.44
2019-03-19T06:01:45.668Z,3.30
2019-03-19T06:05:10.363Z,3.14
2019-03-19T06:08:33.795Z,3.26
2019-03-19T06:11:59.887Z,3.41
2019-03-19T06:15:23.006Z,3.76
2019-03-19T06:18:46.193Z,3.76
2019-03-19T06:22:09.316Z,3.51
2019-03-19T06:25:33.482Z,3.63
2019-03-19T06:28:56.579Z,3.96
2019-03-19T06:32:19.886Z,4.09
2019-03-19T06:35:43.146Z,3.99
2019-03-19T06:39:07.434Z,3.95
2019-03-19T06:42:30.751Z,4.08
2019-03-19T06:45:53.974Z,4.26
2019-03-19T06:49:17.131Z,4.27
2019-03-19T06:52:40.629Z,4.36
2019-03-19T06:56:04.040Z,4.48
2019-03-19T06:59:27.296Z,4.45
2019-03-19T07:02:50.662Z,4.49
2019-03-19T07:06:14.830Z,4.54
2019-03-19T07:09:38.019Z,4.68
2019-03-19T07:13:01.253Z,4.80
2019-03-19T07:16:24.407Z,4.84
2019-03-19T07:19:47.519Z,4.72
2019-03-19T07:23:10.691Z,5.09
2019-03-19T07:26:34.027Z,5.13
2019-03-19T07:29:58.220Z,5.28
2019-03-19T07:33:21.349Z,5.35
2019-03-19T07:36:44.485Z,5.14
2019-03-19T07:40:09.367Z,5.41
2019-03-19T07:43:32.600Z,5.38
2019-03-19T07:46:56.054Z,5.66
2019-03-19T07:50:19.590Z,5.55
2019-03-19T07:53:42.810Z,5.78
2019-03-19T07:57:05.980Z,5.87
2019-03-19T08:00:29.167Z,5.89
2019-03-19T08:03:52.286Z,6.10
2019-03-19T08:07:16.037Z,6.23
2019-03-19T08:10:39.174Z,6.31
2019-03-19T08:14:02.335Z,6.33
2019-03-19T08:17:26.460Z,6.41
2019-03-19T08:20:49.609Z,6.43
2019-03-19T08:24:12.736Z,6.68
2019-03-19T08:27:35.916Z,6.92
2019-03-19T08:30:59.263Z,6.89
2019-03-19T08:34:22.646Z,6.89
2019-03-19T08:37:45.901Z,6.86
2019-03-19T08:41:09.163Z,7.22
2019-03-19T08:44:32.643Z,7.14
2019-03-19T08:47:55.784Z,7.50
2019-03-19T08:51:19.421Z,7.88
2019-03-19T08:54:42.729Z,7.88
2019-03-19T08:58:05.928Z,7.61
2019-03-19T09:01:29.227Z,7.85
2019-03-19T09:04:52.475Z,8.00
2019-03-19T09:08:15.590Z,7.93
2019-03-19T09:11:38.764Z,8.14
2019-03-19T09:15:02.004Z,8.29
2019-03-19T09:18:25.328Z,8.55
2019-03-19T09:21:49.149Z,8.71
2019-03-19T09:25:12.849Z,8.83
2019-03-19T09:28:36.056Z,8.82
2019-03-19T09:31:59.182Z,9.23
2019-03-19T09:35:22.467Z,9.47
2019-03-19T09:38:45.578Z,9.60
2019-03-19T09:42:08.746Z,9.07
2019-03-19T09:45:31.915Z,9.97
2019-03-19T09:48:56.069Z,10.51
2019-03-19T09:52:19.324Z,10.95
2019-03-19T09:55:42.893Z,11.23
2019-03-19T09:59:06.043Z,11.50
2019-03-19T10:02:29.174Z,12.15
2019-03-19T10:05:52.793Z,12.99
2019-03-19T10:09:15.989Z,14.53
2019-03-19T10:12:39.141Z,16.33
2019-03-19T10:16:02.278Z,17.97
2019-03-19T10:19:25.474Z,17.69
2019-03-19T10:22:48.735Z,18.18
2019-03-19T10:26:12.301Z,18.68
2019-03-19T10:29:38.628Z,17.93
2019-03-19T10:33:00.936Z,19.56
2019-03-19T10:36:24.521Z,19.99
2019-03-19T10:39:47.681Z,20.26
2019-03-19T10:43:10.926Z,19.45
2019-03-19T10:46:35.176Z,18.92
2019-03-19T10:49:58.632Z,18.97
2019-03-19T10:53:21.868Z,18.33
2019-03-19T10:56:45.074Z,17.75
2019-03-19T11:00:16.966Z,18.57
2019-03-19T11:03:40.334Z,18.44
2019-03-19T11:07:03.471Z,18.85
2019-03-19T11:10:26.676Z,20.04
2019-03-19T11:13:49.885Z,19.58
2019-03-19T11:17:13.164Z,20.02
2019-03-19T11:20:36.408Z,20.56
2019-03-19T11:23:59.554Z,19.75
2019-03-19T11:27:22.661Z,20.36
2019-03-19T11:30:45.947Z,19.69
2019-03-19T11:34:09.194Z,20.20
2019-03-19T11:37:32.555Z,20.83
2019-03-19T11:40:56.082Z,20.77
2019-03-19T11:44:19.465Z,19.48
2019-03-19T11:47:42.958Z,19.48
2019-03-19T11:51:06.146Z,17.96
2019-03-19T11:54:32.351Z,17.83
2019-03-19T11:57:58.877Z,19.61
2019-03-19T12:01:22.505Z,20.70
2019-03-19T12:04:46.074Z,21.05
2019-03-19T12:08:09.981Z,21.76
2019-03-19T12:11:33.187Z,22.18
2019-03-19T12:14:56.587Z,22.91
2019-03-19T12:18:20.101Z,21.05
2019-03-19T12:21:43.849Z,22.30
2019-03-19T12:25:09.643Z,23.72
2019-03-19T12:28:39.533Z,23.73
2019-03-19T12:32:01.535Z,24.17
2019-03-19T12:35:24.779Z,24.35
2019-03-19T12:38:47.946Z,21.88
2019-03-19T12:42:11.073Z,23.79
2019-03-19T12:45:34.361Z,25.29
2019-03-19T12:48:57.658Z,25.56
2019-03-19T12:52:20.950Z,23.50
2019-03-19T12:55:44.243Z,23.10
2019-03-19T12:59:07.524Z,24.34
2019-03-19T13:02:30.772Z,23.64
2019-03-19T13:05:54.057Z,23.92
2019-03-19T13:09:17.554Z,23.85
2019-03-19T13:12:40.736Z,23.29
2019-03-19T13:16:04.123Z,23.69
2019-03-19T13:19:27.296Z,22.29
2019-03-19T13:22:50.477Z,21.27
2019-03-19T13:26:13.592Z,19.83
2019-03-19T13:29:36.947Z,19.41
2019-03-19T13:33:00.413Z,18.66
2019-03-19T13:36:24.302Z,19.25
2019-03-19T13:39:47.802Z,18.65
2019-03-19T13:43:13.737Z,18.97
2019-03-19T13:46:41.855Z,18.46
2019-03-19T13:50:06.059Z,18.34
2019-03-19T13:53:29.137Z,18.03
2019-03-19T13:56:52.404Z,17.91
2019-03-19T14:00:55.657Z,17.89
2019-03-19T14:04:16.039Z,17.82
2019-03-19T14:07:39.582Z,17.76
2019-03-19T14:11:03.864Z,17.63
2019-03-19T14:14:27.328Z,16.93
2019-03-19T14:17:50.745Z,15.61
2019-03-19T14:21:13.864Z,16.56
2019-03-19T14:24:37.062Z,16.82
2019-03-19T14:28:00.219Z,17.05
2019-03-19T14:31:23.372Z,17.46
2019-03-19T14:34:46.540Z,17.52
2019-03-19T14:38:10.062Z,17.03
2019-03-19T14:41:33.353Z,17.03
2019-03-19T14:44:56.571Z,19.19
2019-03-19T14:48:19.830Z,20.41
2019-03-19T14:51:42.943Z,22.30
2019-03-19T14:55:06.260Z,23.37
2019-03-19T14:58:29.396Z,24.65
2019-03-19T15:01:52.811Z,24.86
2019-03-19T15:05:16.351Z,24.67
2019-03-19T15:08:39.888Z,24.34
2019-03-19T15:12:03.129Z,21.85
2019-03-19T15:15:26.381Z,21.09
2019-03-19T15:18:49.477Z,19.69
2019-03-19T15:22:12.719Z,18.34
2019-03-19T15:25:36.044Z,17.55
2019-03-19T15:28:59.340Z,16.98
2019-03-19T15:32:22.567Z,16.85
2019-03-19T15:35:45.746Z,16.35
2019-03-19T15:39:08.891Z,16.23
2019-03-19T15:42:32.077Z,16.05
2019-03-19T15:45:55.439Z,15.91
2019-03-19T15:49:18.784Z,15.83
2019-03-19T15:52:42.166Z,15.97
2019-03-19T15:56:05.559Z,15.72
2019-03-19T15:59:28.798Z,15.46
2019-03-19T16:02:52.225Z,15.62
2019-03-19T16:06:15.719Z,15.01
2019-03-19T16:09:39.061Z,15.20
2019-03-19T16:13:02.272Z,15.04
2019-03-19T16:16:25.572Z,14.64
2019-03-19T16:19:50.048Z,14.91
2019-03-19T16:23:14.273Z,15.08
2019-03-19T16:26:37.795Z,15.29
2019-03-19T16:30:00.909Z,14.93
2019-03-19T16:33:24.182Z,14.99
2019-03-19T16:36:47.438Z,15.18
2019-03-19T16:40:16.068Z,14.99
2019-03-19T16:43:39.438Z,14.88
2019-03-19T16:47:02.927Z,14.34
2019-03-19T16:50:26.275Z,14.45
2019-03-19T16:53:49.665Z,14.16
2019-03-19T16:57:12.966Z,14.01
2019-03-19T17:00:36.175Z,13.89
2019-03-19T17:03:59.511Z,13.82
2019-03-19T17:07:22.644Z,13.78
2019-03-19T17:12:14.396Z,13.60
2019-03-19T17:16:06.107Z,13.43
2019-03-19T17:19:29.302Z,13.35
2019-03-19T17:22:52.451Z,13.09
2019-03-19T17:26:16.571Z,13.24
2019-03-19T17:29:39.679Z,12.82
2019-03-19T17:33:07.854Z,12.92
2019-03-19T17:36:36.843Z,12.91
2019-03-19T17:40:09.423Z,12.69
2019-03-19T17:43:33.587Z,12.45
2019-03-19T17:46:57.995Z,12.37
2019-03-19T17:50:21.420Z,12.65
2019-03-19T17:53:45.052Z,12.50
2019-03-19T17:57:08.305Z,12.21
2019-03-19T18:00:31.929Z,11.91
2019-03-19T18:03:55.137Z,11.75
2019-03-19T18:07:18.309Z,11.54
2019-03-19T18:10:42.505Z,11.58
2019-03-19T18:14:05.762Z,11.42
2019-03-19T18:17:29.011Z,11.28
2019-03-19T18:20:52.313Z,11.33
2019-03-19T18:24:15.429Z,11.21
2019-03-19T18:27:38.667Z,11.47
2019-03-19T18:31:01.801Z,11.32
2019-03-19T18:34:25.107Z,11.28
2019-03-19T18:37:48.390Z,11.25
2019-03-19T18:41:12.022Z,11.04
2019-03-19T18:44:35.188Z,10.63
2019-03-19T18:47:58.291Z,10.60
2019-03-19T18:51:21.410Z,10.55
2019-03-19T18:54:44.691Z,10.39
2019-03-19T18:58:07.864Z,10.24
2019-03-19T19:01:31.054Z,9.88
2019-03-19T19:04:54.477Z,9.81
2019-03-19T19:08:17.764Z,9.79
2019-03-19T19:11:41.021Z,9.79
2019-03-19T19:15:05.673Z,9.86
2019-03-19T19:18:28.838Z,9.83
2019-03-19T19:21:52.305Z,9.79
2019-03-19T19:25:18.115Z,9.85
2019-03-19T19:28:42.559Z,9.66
2019-03-19T19:32:05.701Z,9.56
2019-03-19T19:35:28.839Z,9.56
2019-03-19T19:38:52.334Z,9.39
2019-03-19T19:42:15.953Z,9.34
2019-03-19T19:45:39.788Z,9.45
2019-03-19T19:49:03.012Z,9.29
2019-03-19T19:52:26.360Z,9.30
2019-03-19T19:55:49.686Z,9.37
2019-03-19T19:59:13.010Z,9.19
2019-03-19T20:02:36.263Z,9.07
2019-03-19T20:05:59.690Z,8.99
2019-03-19T20:09:23.087Z,8.96
2019-03-19T20:12:46.551Z,9.01
2019-03-19T20:16:10.016Z,8.97
2019-03-19T20:19:33.234Z,8.99
2019-03-19T20:22:56.555Z,8.96
2019-03-19T20:26:19.747Z,8.92
2019-03-19T20:29:43.274Z,8.92
2019-03-19T20:33:06.506Z,8.90
2019-03-19T20:36:29.774Z,9.00
2019-03-19T20:39:54.758Z,9.05
2019-03-19T20:43:18.233Z,9.01
2019-03-19T20:46:44.057Z,8.83
2019-03-19T20:50:17.948Z,9.02
2019-03-19T20:53:41.351Z,8.91
2019-03-19T20:57:05.245Z,8.82
2019-03-19T21:00:31.812Z,8.96
2019-03-19T21:03:55.125Z,9.03
2019-03-19T21:07:18.257Z,9.05
2019-03-19T21:10:41.633Z,8.96
2019-03-19T21:14:05.109Z,8.81
2019-03-19T21:17:28.418Z,8.72
2019-03-19T21:20:51.695Z,8.57
2019-03-19T21:24:15.038Z,8.58
2019-03-19T21:27:41.744Z,8.39
2019-03-19T21:31:08.437Z,8.24
2019-03-19T21:34:32.047Z,8.26
2019-03-19T21:37:55.185Z,8.24
2019-03-19T21:41:18.503Z,8.09
2019-03-19T21:44:41.731Z,8.05
2019-03-19T21:48:04.815Z,8.21
2019-03-19T21:51:28.337Z,8.27
2019-03-19T21:54:51.440Z,8.56
2019-03-19T21:58:14.540Z,8.61
2019-03-19T22:01:37.855Z,8.56
2019-03-19T22:05:01.181Z,8.96
2019-03-19T22:08:24.406Z,8.82
2019-03-19T22:11:47.650Z,8.62
2019-03-19T22:15:14.302Z,8.48
2019-03-19T22:18:37.826Z,8.44
2019-03-19T22:22:00.943Z,8.52
2019-03-19T22:25:24.397Z,8.55
2019-03-19T22:28:47.777Z,8.78
2019-03-19T22:32:10.981Z,8.83
2019-03-19T22:35:34.202Z,8.71
2019-03-19T22:38:57.381Z,8.57
2019-03-19T22:42:20.664Z,8.24
2019-03-19T22:45:43.825Z,8.20
2019-03-19T22:49:07.307Z,8.11
2019-03-19T22:52:30.519Z,8.09
2019-03-19T22:55:53.752Z,8.11
2019-03-19T22:59:17.000Z,8.27
2019-03-19T23:02:40.213Z,8.35
2019-03-19T23:06:03.467Z,8.22
2019-03-19T23:09:26.697Z,8.12
2019-03-19T23:12:49.985Z,8.33
2019-03-19T23:16:13.253Z,8.33
2019-03-19T23:19:36.663Z,8.43
2019-03-19T23:22:59.812Z,8.38
2019-03-19T23:26:22.988Z,8.53
2019-03-19T23:29:46.193Z,8.46
2019-03-19T23:33:09.394Z,8.23
2019-03-19T23:36:35.568Z,8.19
2019-03-19T23:39:59.182Z,8.13
2019-03-19T23:43:22.454Z,8.07
2019-03-19T23:46:45.701Z,7.92
2019-03-19T23:50:10.158Z,8.07
2019-03-19T23:53:34.616Z,8.32
2019-03-19T23:56:57.999Z,8.38
